createdAt,value
2022-12-15T00:01:03.592Z,67.50
2022-12-15T00:04:48.130Z,67.36
2022-12-15T00:08:50.032Z,67.30
2022-12-15T00:12:34.388Z,67.48
2022-12-15T00:16:19.079Z,67.53
2022-12-15T00:20:03.940Z,67.52
2022-12-15T00:23:49.153Z,67.28
2022-12-15T00:27:33.304Z,67.18
2022-12-15T00:31:20.724Z,67.13
2022-12-15T00:35:05.427Z,67.39
2022-12-15T00:38:45.563Z,67.36
2022-12-15T00:42:12.988Z,67.17
2022-12-15T00:45:57.516Z,67.01
2022-12-15T00:49:41.796Z,67.16
2022-12-15T00:53:27.571Z,67.21
2022-12-15T00:57:12.062Z,67.07
2022-12-15T01:00:56.209Z,66.72
2022-12-15T01:04:40.684Z,66.90
2022-12-15T01:08:25.285Z,66.87
2022-12-15T01:12:12.376Z,66.98
2022-12-15T01:15:59.700Z,66.78
2022-12-15T01:19:44.053Z,66.90
2022-12-15T01:23:11.067Z,66.59
2022-12-15T01:26:37.786Z,66.95
2022-12-15T01:30:05.147Z,66.85
2022-12-15T01:33:32.556Z,66.70
2022-12-15T01:36:59.619Z,66.29
2022-12-15T01:40:46.090Z,66.53
2022-12-15T01:44:22.419Z,66.57
2022-12-15T01:47:49.380Z,66.39
2022-12-15T01:51:30.003Z,66.41
2022-12-15T01:54:59.304Z,66.67
2022-12-15T01:58:27.062Z,66.67
2022-12-15T02:01:54.029Z,66.43
2022-12-15T02:05:23.037Z,66.32
2022-12-15T02:08:52.280Z,66.03
2022-12-15T02:12:28.793Z,66.23
2022-12-15T02:16:03.601Z,66.38
2022-12-15T02:20:10.469Z,66.07
2022-12-15T02:24:15.956Z,66.20
2022-12-15T02:27:55.245Z,66.28
2022-12-15T02:31:51.228Z,66.30
2022-12-15T02:35:29.863Z,66.00
2022-12-15T02:38:57.062Z,66.06
2022-12-15T02:42:26.161Z,66.06
2022-12-15T02:46:04.292Z,65.93
2022-12-15T02:49:39.353Z,65.95
2022-12-15T02:53:22.973Z,65.60
2022-12-15T02:56:59.803Z,65.55
2022-12-15T03:00:29.325Z,65.45
2022-12-15T03:03:59.355Z,65.78
2022-12-15T03:07:28.597Z,65.57
2022-12-15T03:10:58.257Z,65.67
2022-12-15T03:14:26.363Z,65.65
2022-12-15T03:17:53.559Z,65.72
2022-12-15T03:21:20.795Z,65.74
2022-12-15T03:24:48.687Z,65.47
2022-12-15T03:28:15.840Z,65.82
2022-12-15T03:31:42.833Z,65.80
2022-12-15T03:35:11.223Z,65.51
2022-12-15T03:38:37.925Z,65.76
2022-12-15T03:42:04.512Z,65.67
2022-12-15T03:45:31.762Z,65.57
2022-12-15T03:48:58.777Z,65.59
2022-12-15T03:52:25.373Z,65.63
2022-12-15T03:55:52.175Z,65.23
2022-12-15T03:59:18.584Z,65.50
2022-12-15T04:02:46.164Z,65.32
2022-12-15T04:06:12.910Z,65.32
2022-12-15T04:09:39.798Z,65.23
2022-12-15T04:13:09.127Z,65.27
2022-12-15T04:16:36.120Z,65.58
2022-12-15T04:20:11.986Z,65.66
2022-12-15T04:23:42.278Z,65.75
2022-12-15T04:27:26.609Z,65.96
2022-12-15T04:31:15.148Z,66.07
2022-12-15T04:34:59.536Z,66.43
2022-12-15T04:38:49.988Z,66.75
2022-12-15T04:42:35.983Z,66.41
2022-12-15T04:46:20.502Z,66.58
2022-12-15T04:50:04.913Z,66.67
2022-12-15T04:53:49.764Z,67.03
2022-12-15T04:57:34.255Z,66.97
2022-12-15T05:01:19.013Z,66.93
2022-12-15T05:05:03.430Z,66.90
2022-12-15T05:08:50.278Z,67.35
2022-12-15T05:12:34.940Z,67.47
2022-12-15T05:16:20.854Z,67.48
2022-12-15T05:20:13.009Z,67.49
2022-12-15T05:23:57.157Z,67.68
2022-12-15T05:27:43.094Z,67.92
2022-12-15T05:31:29.995Z,67.89
2022-12-15T05:34:56.583Z,68.07
2022-12-15T05:38:23.634Z,68.10
2022-12-15T05:41:49.872Z,68.15
2022-12-15T05:45:16.329Z,68.18
2022-12-15T05:48:43.562Z,68.49
2022-12-15T05:52:10.933Z,68.31
2022-12-15T05:55:37.456Z,68.24
2022-12-15T05:59:04.658Z,68.28
2022-12-15T06:02:32.927Z,68.46
2022-12-15T06:06:00.740Z,68.60
2022-12-15T06:09:29.270Z,68.64
2022-12-15T06:12:56.124Z,68.54
2022-12-15T06:16:33.572Z,68.81
2022-12-15T06:20:00.450Z,68.68
2022-12-15T06:23:29.777Z,68.90
2022-12-15T06:26:56.509Z,68.71
2022-12-15T06:30:23.123Z,68.78
2022-12-15T06:33:52.522Z,68.80
2022-12-15T06:37:22.844Z,68.86
2022-12-15T06:40:55.993Z,68.80
2022-12-15T06:44:22.194Z,68.86
2022-12-15T06:47:49.965Z,68.73
2022-12-15T06:51:17.812Z,68.80
2022-12-15T06:54:44.326Z,68.73
2022-12-15T06:58:12.558Z,68.88
2022-12-15T07:01:39.731Z,68.75
2022-12-15T07:05:07.170Z,68.78
2022-12-15T07:08:40.976Z,68.83
2022-12-15T07:12:08.864Z,68.72
2022-12-15T07:15:37.113Z,68.71
2022-12-15T07:19:04.073Z,68.80
2022-12-15T07:22:31.210Z,68.81
2022-12-15T07:25:58.346Z,68.86
2022-12-15T07:29:28.340Z,69.22
2022-12-15T07:32:55.115Z,69.01
2022-12-15T07:36:21.909Z,69.06
2022-12-15T07:39:48.841Z,69.21
2022-12-15T07:43:15.756Z,69.34
2022-12-15T07:46:49.345Z,69.21
2022-12-15T07:50:16.264Z,69.04
2022-12-15T07:53:43.087Z,69.17
2022-12-15T07:57:09.747Z,69.44
2022-12-15T08:00:38.016Z,69.15
2022-12-15T08:04:07.263Z,69.40
2022-12-15T08:07:34.026Z,69.56
2022-12-15T08:11:01.084Z,69.65
2022-12-15T08:14:29.130Z,69.62
2022-12-15T08:17:56.314Z,69.75
2022-12-15T08:21:23.340Z,69.76
2022-12-15T08:24:50.037Z,69.33
2022-12-15T08:28:17.925Z,69.55
2022-12-15T08:31:44.718Z,69.64
2022-12-15T08:35:38.944Z,69.88
2022-12-15T08:39:01.896Z,69.91
2022-12-15T08:42:28.041Z,70.00
2022-12-15T08:45:56.371Z,69.66
2022-12-15T08:49:23.448Z,69.66
2022-12-15T08:53:13.768Z,69.92
2022-12-15T08:56:37.327Z,69.67
2022-12-15T09:00:07.644Z,69.67
2022-12-15T09:03:37.711Z,69.77
2022-12-15T09:07:03.900Z,69.62
2022-12-15T09:10:30.750Z,69.76
2022-12-15T09:13:57.808Z,69.77
2022-12-15T09:17:24.702Z,69.95
2022-12-15T09:20:51.545Z,69.79
2022-12-15T09:24:28.914Z,69.80
2022-12-15T09:28:00.880Z,69.73
2022-12-15T09:31:29.813Z,69.93
2022-12-15T09:34:57.013Z,70.16
2022-12-15T09:38:24.342Z,69.86
2022-12-15T09:41:57.188Z,70.06
2022-12-15T09:45:28.419Z,69.85
2022-12-15T09:49:04.675Z,69.87
2022-12-15T09:52:34.363Z,69.72
2022-12-15T09:56:09.998Z,69.63
2022-12-15T09:59:48.113Z,69.89
2022-12-15T10:03:31.921Z,69.87
2022-12-15T10:07:07.945Z,69.73
2022-12-15T10:10:41.594Z,69.70
2022-12-15T10:14:17.355Z,69.65
2022-12-15T10:17:51.011Z,69.69
2022-12-15T10:21:17.670Z,69.47
2022-12-15T10:28:51.546Z,69.38
2022-12-15T10:32:25.426Z,69.63
2022-12-15T10:35:54.909Z,69.68
2022-12-15T10:39:22.673Z,69.47
2022-12-15T10:42:52.353Z,69.64
2022-12-15T10:46:22.520Z,69.38
2022-12-15T10:49:49.394Z,69.74
2022-12-15T10:53:40.705Z,69.28
2022-12-15T10:57:20.660Z,69.29
2022-12-15T11:00:50.888Z,69.44
2022-12-15T11:04:32.228Z,69.47
2022-12-15T11:08:16.549Z,69.50
2022-12-15T11:12:12.109Z,69.66
2022-12-15T11:15:51.391Z,69.54
2022-12-15T11:19:25.731Z,69.62
2022-12-15T11:22:59.837Z,69.97
2022-12-15T11:26:44.562Z,69.73
2022-12-15T11:30:19.101Z,69.88
2022-12-15T11:33:55.011Z,69.96
2022-12-15T11:37:40.559Z,70.03
2022-12-15T11:41:17.335Z,70.07
2022-12-15T11:44:59.134Z,70.11
2022-12-15T11:48:33.933Z,70.11
2022-12-15T11:52:08.717Z,70.14
2022-12-15T11:55:47.622Z,69.85
2022-12-15T11:59:35.388Z,70.13
2022-12-15T12:03:17.915Z,69.78
2022-12-15T12:06:55.760Z,70.01
2022-12-15T12:10:32.938Z,70.12
2022-12-15T12:14:13.743Z,70.16
2022-12-15T12:17:46.803Z,70.32
2022-12-15T12:21:13.634Z,70.30
2022-12-15T12:24:45.203Z,70.11
2022-12-15T12:28:23.004Z,70.20
2022-12-15T12:32:04.581Z,70.03
2022-12-15T12:35:39.241Z,70.28
2022-12-15T12:39:06.813Z,70.32
2022-12-15T12:42:42.733Z,70.21
2022-12-15T12:46:18.083Z,70.29
2022-12-15T12:49:50.198Z,70.35
2022-12-15T12:53:33.437Z,70.12
2022-12-15T12:57:01.107Z,70.26
2022-12-15T13:00:30.098Z,70.32
2022-12-15T13:04:11.968Z,70.31
2022-12-15T13:07:41.047Z,70.33
2022-12-15T13:11:38.614Z,70.43
2022-12-15T13:15:14.525Z,70.46
2022-12-15T13:18:58.728Z,70.51
2022-12-15T13:22:32.856Z,70.41
2022-12-15T13:26:15.817Z,70.24
2022-12-15T13:30:01.096Z,70.55
2022-12-15T13:33:29.159Z,70.68
2022-12-15T13:37:08.433Z,70.70
2022-12-15T13:40:54.251Z,70.93
2022-12-15T13:44:31.395Z,70.71
2022-12-15T13:48:11.440Z,70.91
2022-12-15T13:51:51.532Z,70.52
2022-12-15T13:55:27.830Z,70.78
2022-12-15T13:59:02.648Z,70.64
2022-12-15T14:02:38.508Z,71.08
2022-12-15T14:06:15.648Z,71.31
2022-12-15T14:09:44.796Z,71.06
2022-12-15T14:13:19.069Z,70.93
2022-12-15T14:16:45.257Z,71.10
2022-12-15T14:20:22.335Z,71.03
2022-12-15T14:24:28.533Z,70.99
2022-12-15T14:27:37.085Z,70.86
2022-12-15T14:31:07.400Z,70.91
2022-12-15T14:34:41.571Z,70.95
2022-12-15T14:38:13.959Z,71.14
2022-12-15T14:45:35.978Z,71.08
2022-12-15T14:49:06.090Z,70.83
2022-12-15T14:52:36.665Z,71.05
2022-12-15T14:56:16.637Z,70.96
2022-12-15T14:59:48.761Z,70.85
2022-12-15T15:03:10.316Z,71.01
2022-12-15T15:03:10.852Z,69.49
2022-12-15T15:03:28.259Z,71.20
2022-12-15T15:06:59.393Z,71.28
2022-12-15T15:10:31.673Z,71.34
2022-12-15T15:14:00.869Z,71.47
2022-12-15T15:17:32.722Z,71.46
2022-12-15T15:21:04.676Z,71.19
2022-12-15T15:24:39.916Z,71.34
2022-12-15T15:28:16.541Z,71.51
2022-12-15T15:31:45.094Z,71.47
2022-12-15T15:35:12.250Z,71.51
2022-12-15T15:38:42.731Z,71.47
2022-12-15T15:42:14.603Z,71.51
2022-12-15T15:45:43.204Z,71.54
2022-12-15T15:49:16.762Z,71.46
2022-12-15T15:52:45.105Z,71.77
2022-12-15T15:56:14.235Z,71.79
2022-12-15T15:59:42.818Z,71.72
2022-12-15T16:03:11.342Z,71.41
2022-12-15T16:06:46.775Z,71.49
2022-12-15T16:10:19.678Z,71.63
2022-12-15T16:13:47.430Z,71.50
2022-12-15T16:17:16.005Z,71.80
2022-12-15T16:20:49.137Z,71.88
2022-12-15T16:24:19.908Z,71.67
2022-12-15T16:27:48.019Z,71.59
2022-12-15T16:31:41.480Z,71.81
2022-12-15T16:35:10.939Z,71.76
2022-12-15T16:38:38.696Z,71.64
2022-12-15T16:42:13.330Z,71.80
2022-12-15T16:45:43.996Z,71.72
2022-12-15T16:49:11.297Z,71.79
2022-12-15T16:52:45.023Z,71.76
2022-12-15T16:56:16.717Z,71.60
2022-12-15T16:59:43.760Z,71.72
2022-12-15T17:03:15.789Z,71.96
2022-12-15T17:06:42.934Z,71.87
2022-12-15T17:10:16.857Z,71.97
2022-12-15T17:13:46.018Z,71.74
2022-12-15T17:17:37.330Z,71.72
2022-12-15T17:21:14.705Z,71.74
2022-12-15T17:24:44.661Z,71.69
2022-12-15T17:28:18.630Z,71.75
2022-12-15T17:31:44.117Z,71.71
2022-12-15T17:35:13.791Z,71.85
2022-12-15T17:38:41.574Z,71.75
2022-12-15T17:42:19.731Z,71.84
2022-12-15T17:45:48.199Z,71.63
2022-12-15T17:49:15.641Z,71.78
2022-12-15T17:52:44.197Z,71.62
2022-12-15T17:56:13.140Z,71.59
2022-12-15T17:59:39.566Z,71.61
2022-12-15T18:03:06.770Z,71.64
2022-12-15T18:06:34.301Z,71.66
2022-12-15T18:10:01.131Z,71.75
2022-12-15T18:13:34.907Z,71.62
2022-12-15T18:17:02.162Z,71.56
2022-12-15T18:20:29.103Z,71.50
2022-12-15T18:23:56.148Z,71.56
2022-12-15T18:27:26.357Z,71.57
2022-12-15T18:30:54.943Z,71.60
2022-12-15T18:34:22.829Z,71.74
2022-12-15T18:37:50.718Z,71.60
2022-12-15T18:41:21.349Z,71.66
2022-12-15T18:44:51.145Z,71.60
2022-12-15T18:48:21.232Z,71.91
2022-12-15T18:51:50.666Z,71.60
2022-12-15T18:55:25.957Z,71.64
2022-12-15T18:58:52.805Z,71.69
2022-12-15T19:02:20.132Z,71.58
2022-12-15T19:05:48.109Z,71.57
2022-12-15T19:09:21.852Z,71.59
2022-12-15T19:12:50.876Z,71.78
2022-12-15T19:16:22.606Z,71.71
2022-12-15T19:20:06.704Z,71.82
2022-12-15T19:23:34.043Z,71.60
2022-12-15T19:27:01.750Z,71.56
2022-12-15T19:30:31.260Z,71.76
2022-12-15T19:33:59.803Z,71.64
2022-12-15T19:37:31.190Z,71.68
2022-12-15T19:40:58.960Z,71.66
2022-12-15T19:44:26.442Z,71.64
2022-12-15T19:47:54.456Z,71.75
2022-12-15T19:51:23.459Z,71.54
2022-12-15T19:54:52.064Z,71.72
2022-12-15T19:58:32.122Z,71.75
2022-12-15T20:02:01.520Z,71.70
2022-12-15T20:05:33.928Z,71.85
2022-12-15T20:09:03.398Z,71.82
2022-12-15T20:12:31.640Z,71.71
2022-12-15T20:16:00.324Z,71.81
2022-12-15T20:19:28.705Z,71.71
2022-12-15T20:23:06.959Z,71.57
2022-12-15T20:26:36.798Z,71.50
2022-12-15T20:30:06.646Z,71.56
2022-12-15T20:33:34.191Z,71.48
2022-12-15T20:37:01.627Z,71.64
2022-12-15T20:40:31.188Z,71.56
2022-12-15T20:44:01.400Z,71.33
2022-12-15T20:47:32.434Z,71.34
2022-12-15T20:51:09.505Z,71.58
2022-12-15T20:54:37.979Z,71.65
2022-12-15T20:58:11.444Z,71.56
2022-12-15T21:01:42.267Z,71.52
2022-12-15T21:05:13.866Z,71.52
2022-12-15T21:08:41.377Z,71.61
2022-12-15T21:12:20.984Z,71.59
2022-12-15T21:15:50.716Z,71.62
2022-12-15T21:19:21.672Z,71.46
2022-12-15T21:22:49.488Z,71.29
2022-12-15T21:26:22.374Z,71.32
2022-12-15T21:29:52.587Z,71.34
2022-12-15T21:33:35.262Z,71.35
2022-12-15T21:37:03.895Z,71.49
2022-12-15T21:40:36.555Z,71.53
2022-12-15T21:44:16.161Z,71.61
2022-12-15T21:48:02.664Z,71.47
2022-12-15T21:51:34.842Z,71.52
2022-12-15T21:55:01.593Z,71.60
2022-12-15T21:58:28.385Z,71.49
2022-12-15T22:01:58.339Z,71.43
2022-12-15T22:05:30.455Z,71.20
2022-12-15T22:09:01.860Z,71.18
2022-12-15T22:12:28.823Z,71.09
2022-12-15T22:15:56.073Z,71.13
2022-12-15T22:19:24.110Z,70.98
2022-12-15T22:22:51.680Z,71.02
2022-12-15T22:26:23.908Z,70.86
2022-12-15T22:29:56.171Z,71.05
2022-12-15T22:33:32.430Z,70.89
2022-12-15T22:37:02.475Z,71.03
2022-12-15T22:40:38.073Z,70.95
2022-12-15T22:44:15.642Z,70.91
2022-12-15T22:47:45.453Z,71.03
2022-12-15T22:51:17.186Z,70.88
2022-12-15T22:54:54.320Z,70.68
2022-12-15T22:58:28.707Z,70.58
2022-12-15T23:02:02.988Z,70.83
2022-12-15T23:05:42.899Z,70.56
2022-12-15T23:09:10.553Z,70.68
2022-12-15T23:12:44.100Z,70.58
2022-12-15T23:16:22.513Z,70.73
2022-12-15T23:19:55.255Z,70.46
2022-12-15T23:23:26.025Z,70.42
2022-12-15T23:26:55.837Z,70.18
2022-12-15T23:30:22.640Z,70.21
2022-12-15T23:33:53.530Z,70.30
2022-12-15T23:37:20.923Z,70.05
2022-12-15T23:40:53.093Z,70.04
2022-12-15T23:44:21.379Z,70.12
2022-12-15T23:47:55.663Z,69.90
2022-12-15T23:51:24.842Z,70.18
2022-12-15T23:55:00.097Z,69.97
2022-12-15T23:58:27.169Z,70.08
